sensor_id;sensor_type;location;lat;lon;timestamp;pressure;altitude;pressure_sealevel;temperature;humidity
46756;BME280;32506;52.826;-1.192;2023-02-01T00:00:47;101487.78;;;5.91;57.73
46756;BME280;32506;52.826;-1.192;2023-02-01T00:03:13;101485.28;;;5.90;58.06
46756;BME280;32506;52.826;-1.192;2023-02-01T00:05:39;101479.31;;;5.87;57.58
46756;BME280;32506;52.826;-1.192;2023-02-01T00:08:05;101475.81;;;5.87;57.66
46756;BME280;32506;52.826;-1.192;2023-02-01T00:10:30;101477.63;;;5.86;57.84
46756;BME280;32506;52.826;-1.192;2023-02-01T00:12:56;101477.78;;;5.85;57.33
46756;BME280;32506;52.826;-1.192;2023-02-01T00:15:21;101475.16;;;5.85;57.64
46756;BME280;32506;52.826;-1.192;2023-02-01T00:17:51;101468.16;;;5.84;58.04
46756;BME280;32506;52.826;-1.192;2023-02-01T00:20:17;101471.66;;;5.84;57.73
46756;BME280;32506;52.826;-1.192;2023-02-01T00:22:43;101466.53;;;5.83;58.11
46756;BME280;32506;52.826;-1.192;2023-02-01T00:25:08;101473.63;;;5.82;57.65
46756;BME280;32506;52.826;-1.192;2023-02-01T00:27:34;101471.97;;;5.81;58.03
46756;BME280;32506;52.826;-1.192;2023-02-01T00:29:59;101475.63;;;5.80;58.00
46756;BME280;32506;52.826;-1.192;2023-02-01T00:32:25;101477.44;;;5.80;58.43
46756;BME280;32506;52.826;-1.192;2023-02-01T00:34:50;101480.94;;;5.80;57.90
46756;BME280;32506;52.826;-1.192;2023-02-01T00:37:16;101491.69;;;5.79;57.70
46756;BME280;32506;52.826;-1.192;2023-02-01T00:39:41;101479.44;;;5.78;57.75
46756;BME280;32506;52.826;-1.192;2023-02-01T00:42:06;101476.78;;;5.78;58.15
46756;BME280;32506;52.826;-1.192;2023-02-01T00:44:32;101468.13;;;5.76;58.05
46756;BME280;32506;52.826;-1.192;2023-02-01T00:47:00;101470.78;;;5.76;58.27
46756;BME280;32506;52.826;-1.192;2023-02-01T00:49:25;101481.56;;;5.74;57.82
46756;BME280;32506;52.826;-1.192;2023-02-01T00:51:51;101473.59;;;5.74;58.03
46756;BME280;32506;52.826;-1.192;2023-02-01T00:54:16;101485.19;;;5.73;58.03
46756;BME280;32506;52.826;-1.192;2023-02-01T00:56:41;101497.66;;;5.72;58.12
46756;BME280;32506;52.826;-1.192;2023-02-01T00:59:11;101486.22;;;5.72;57.81
46756;BME280;32506;52.826;-1.192;2023-02-01T01:01:36;101486.34;;;5.70;58.05
46756;BME280;32506;52.826;-1.192;2023-02-01T01:04:02;101479.41;;;5.69;57.72
46756;BME280;32506;52.826;-1.192;2023-02-01T01:06:30;101480.53;;;5.67;58.00
46756;BME280;32506;52.826;-1.192;2023-02-01T01:08:58;101479.53;;;5.68;58.04
46756;BME280;32506;52.826;-1.192;2023-02-01T01:11:27;101474.38;;;5.66;58.43
46756;BME280;32506;52.826;-1.192;2023-02-01T01:13:54;101480.72;;;5.65;58.03
46756;BME280;32506;52.826;-1.192;2023-02-01T01:16:23;101480.84;;;5.64;58.16
46756;BME280;32506;52.826;-1.192;2023-02-01T01:18:49;101483.50;;;5.64;57.78
46756;BME280;32506;52.826;-1.192;2023-02-01T01:21:16;101471.25;;;5.63;58.10
46756;BME280;32506;52.826;-1.192;2023-02-01T01:23:42;101467.59;;;5.64;58.10
46756;BME280;32506;52.826;-1.192;2023-02-01T01:26:10;101470.41;;;5.62;58.41
46756;BME280;32506;52.826;-1.192;2023-02-01T01:28:37;101466.06;;;5.61;58.25
46756;BME280;32506;52.826;-1.192;2023-02-01T01:31:03;101472.22;;;5.62;57.95
46756;BME280;32506;52.826;-1.192;2023-02-01T01:33:28;101465.25;;;5.61;58.25
46756;BME280;32506;52.826;-1.192;2023-02-01T01:35:54;101465.25;;;5.61;58.06
46756;BME280;32506;52.826;-1.192;2023-02-01T01:38:19;101458.28;;;5.60;58.67
46756;BME280;32506;52.826;-1.192;2023-02-01T01:40:46;101467.91;;;5.61;58.19
46756;BME280;32506;52.826;-1.192;2023-02-01T01:43:15;101467.09;;;5.60;58.68
46756;BME280;32506;52.826;-1.192;2023-02-01T01:45:41;101467.09;;;5.60;58.48
46756;BME280;32506;52.826;-1.192;2023-02-01T01:48:25;101459.13;;;5.60;58.88
46756;BME280;32506;52.826;-1.192;2023-02-01T01:51:03;101457.28;;;5.61;58.42
46756;BME280;32506;52.826;-1.192;2023-02-01T01:53:38;101451.19;;;5.60;58.59
46756;BME280;32506;52.826;-1.192;2023-02-01T01:56:05;101444.19;;;5.59;58.76
46756;BME280;32506;52.826;-1.192;2023-02-01T01:58:32;101450.31;;;5.60;58.31
46756;BME280;32506;52.826;-1.192;2023-02-01T02:00:58;101446.03;;;5.59;58.72
46756;BME280;32506;52.826;-1.192;2023-02-01T02:03:43;101443.22;;;5.60;58.49
46756;BME280;32506;52.826;-1.192;2023-02-01T02:06:35;101436.25;;;5.59;58.71
46756;BME280;32506;52.826;-1.192;2023-02-01T02:09:03;101443.38;;;5.59;58.69
46756;BME280;32506;52.826;-1.192;2023-02-01T02:11:28;101441.56;;;5.59;58.94
46756;BME280;32506;52.826;-1.192;2023-02-01T02:13:56;101438.91;;;5.59;59.05
46756;BME280;32506;52.826;-1.192;2023-02-01T02:16:35;101439.72;;;5.60;58.82
46756;BME280;32506;52.826;-1.192;2023-02-01T02:38:41;101430.13;;;5.59;59.27
46756;BME280;32506;52.826;-1.192;2023-02-01T02:41:27;101416.88;;;5.59;59.41
46756;BME280;32506;52.826;-1.192;2023-02-01T02:44:21;101427.47;;;5.59;59.25
46756;BME280;32506;52.826;-1.192;2023-02-01T02:47:57;101416.00;;;5.58;59.35
46756;BME280;32506;52.826;-1.192;2023-02-01T02:53:28;101427.31;;;5.60;59.24
46756;BME280;32506;52.826;-1.192;2023-02-01T02:56:17;101434.41;;;5.60;59.09
46756;BME280;32506;52.826;-1.192;2023-02-01T02:59:03;101431.75;;;5.60;59.50
46756;BME280;32506;52.826;-1.192;2023-02-01T03:01:49;101444.84;;;5.61;59.56
46756;BME280;32506;52.826;-1.192;2023-02-01T03:04:33;101451.00;;;5.62;59.10
46756;BME280;32506;52.826;-1.192;2023-02-01T03:07:13;101436.78;;;5.63;59.57
46756;BME280;32506;52.826;-1.192;2023-02-01T03:09:40;101441.38;;;5.61;59.54
46756;BME280;32506;52.826;-1.192;2023-02-01T03:12:11;101458.97;;;5.62;59.33
46756;BME280;32506;52.826;-1.192;2023-02-01T03:15:06;101455.47;;;5.61;59.50
46756;BME280;32506;52.826;-1.192;2023-02-01T03:17:38;101462.44;;;5.62;59.71
46756;BME280;32506;52.826;-1.192;2023-02-01T03:20:06;101466.75;;;5.63;59.71
46756;BME280;32506;52.826;-1.192;2023-02-01T03:22:33;101462.44;;;5.62;59.56
46756;BME280;32506;52.826;-1.192;2023-02-01T03:25:11;101472.22;;;5.62;59.34
46756;BME280;32506;52.826;-1.192;2023-02-01T03:27:42;101479.19;;;5.63;59.27
46756;BME280;32506;52.826;-1.192;2023-02-01T03:30:18;101468.72;;;5.61;59.67
46756;BME280;32506;52.826;-1.192;2023-02-01T03:32:47;101481.00;;;5.62;59.75
46756;BME280;32506;52.826;-1.192;2023-02-01T03:35:45;101470.41;;;5.62;59.57
46756;BME280;32506;52.826;-1.192;2023-02-01T03:38:31;101474.88;;;5.62;59.44
46756;BME280;32506;52.826;-1.192;2023-02-01T03:44:01;101481.16;;;5.61;59.62
46756;BME280;32506;52.826;-1.192;2023-02-01T03:46:35;101479.50;;;5.60;59.50
46756;BME280;32506;52.826;-1.192;2023-02-01T03:49:06;101478.50;;;5.61;59.39
46756;BME280;32506;52.826;-1.192;2023-02-01T03:51:33;101478.69;;;5.59;59.23
46756;BME280;32506;52.826;-1.192;2023-02-01T03:54:03;101465.41;;;5.59;59.38
46756;BME280;32506;52.826;-1.192;2023-02-01T03:56:31;101469.06;;;5.58;59.71
46756;BME280;32506;52.826;-1.192;2023-02-01T03:58:58;101464.59;;;5.59;59.54
46756;BME280;32506;52.826;-1.192;2023-02-01T04:01:28;101446.03;;;5.59;59.85
46756;BME280;32506;52.826;-1.192;2023-02-01T04:03:55;101444.19;;;5.59;59.52
46756;BME280;32506;52.826;-1.192;2023-02-01T04:06:21;101449.50;;;5.59;60.09
46756;BME280;32506;52.826;-1.192;2023-02-01T04:08:47;101441.56;;;5.59;59.52
46756;BME280;32506;52.826;-1.192;2023-02-01T04:11:12;101438.06;;;5.59;59.78
46756;BME280;32506;52.826;-1.192;2023-02-01T04:13:38;101455.63;;;5.60;59.72
46756;BME280;32506;52.826;-1.192;2023-02-01T04:16:03;101451.34;;;5.59;59.83
46756;BME280;32506;52.826;-1.192;2023-02-01T04:18:29;101452.16;;;5.59;59.91
46756;BME280;32506;52.826;-1.192;2023-02-01T04:20:54;101459.28;;;5.59;59.90
46756;BME280;32506;52.826;-1.192;2023-02-01T04:23:20;101454.00;;;5.59;59.57
46756;BME280;32506;52.826;-1.192;2023-02-01T04:25:45;101463.59;;;5.60;59.69
46756;BME280;32506;52.826;-1.192;2023-02-01T04:28:11;101442.38;;;5.60;60.01
46756;BME280;32506;52.826;-1.192;2023-02-01T04:30:36;101452.97;;;5.60;60.16
46756;BME280;32506;52.826;-1.192;2023-02-01T04:33:02;101449.50;;;5.59;59.80
46756;BME280;32506;52.826;-1.192;2023-02-01T04:35:30;101452.16;;;5.59;59.81
46756;BME280;32506;52.826;-1.192;2023-02-01T04:37:56;101427.47;;;5.59;60.04
46756;BME280;32506;52.826;-1.192;2023-02-01T04:40:21;101445.88;;;5.60;60.04
46756;BME280;32506;52.826;-1.192;2023-02-01T04:42:47;101439.72;;;5.60;60.00
46756;BME280;32506;52.826;-1.192;2023-02-01T04:45:12;101438.91;;;5.59;59.82
46756;BME280;32506;52.826;-1.192;2023-02-01T04:47:38;101433.59;;;5.59;59.83
46756;BME280;32506;52.826;-1.192;2023-02-01T04:50:04;101424.81;;;5.59;60.10
46756;BME280;32506;52.826;-1.192;2023-02-01T04:52:31;101420.50;;;5.58;59.75
46756;BME280;32506;52.826;-1.192;2023-02-01T04:54:56;101432.78;;;5.59;60.16
46756;BME280;32506;52.826;-1.192;2023-02-01T04:57:24;101438.06;;;5.59;60.26
46756;BME280;32506;52.826;-1.192;2023-02-01T04:59:50;101442.53;;;5.58;59.92
46756;BME280;32506;52.826;-1.192;2023-02-01T05:02:16;101439.88;;;5.58;60.08
46756;BME280;32506;52.826;-1.192;2023-02-01T05:04:41;101440.84;;;5.57;59.83
46756;BME280;32506;52.826;-1.192;2023-02-01T05:07:06;101446.16;;;5.57;60.05
46756;BME280;32506;52.826;-1.192;2023-02-01T05:09:32;101444.38;;;5.58;60.28
46756;BME280;32506;52.826;-1.192;2023-02-01T05:11:57;101437.38;;;5.57;59.84
46756;BME280;32506;52.826;-1.192;2023-02-01T05:14:41;101449.84;;;5.56;59.83
46756;BME280;32506;52.826;-1.192;2023-02-01T05:17:07;101449.84;;;5.56;60.15
46756;BME280;32506;52.826;-1.192;2023-02-01T05:19:32;101442.00;;;5.54;60.02
46756;BME280;32506;52.826;-1.192;2023-02-01T05:21:58;101457.09;;;5.54;59.96
46756;BME280;32506;52.826;-1.192;2023-02-01T05:24:23;101454.59;;;5.52;59.59
46756;BME280;32506;52.826;-1.192;2023-02-01T05:26:49;101457.91;;;5.54;59.96
46756;BME280;32506;52.826;-1.192;2023-02-01T05:29:16;101453.63;;;5.53;60.15
46756;BME280;32506;52.826;-1.192;2023-02-01T05:31:44;101450.28;;;5.51;59.90
46756;BME280;32506;52.826;-1.192;2023-02-01T05:34:10;101453.78;;;5.52;59.97
46756;BME280;32506;52.826;-1.192;2023-02-01T05:36:35;101453.91;;;5.50;59.95
46756;BME280;32506;52.826;-1.192;2023-02-01T05:39:01;101465.53;;;5.49;59.71
46756;BME280;32506;52.826;-1.192;2023-02-01T05:41:26;101458.41;;;5.50;59.81
46756;BME280;32506;52.826;-1.192;2023-02-01T05:43:52;101472.47;;;5.50;59.84
46756;BME280;32506;52.826;-1.192;2023-02-01T05:46:17;101465.53;;;5.49;60.15
46756;BME280;32506;52.826;-1.192;2023-02-01T05:48:43;101468.31;;;5.48;59.91
46756;BME280;32506;52.826;-1.192;2023-02-01T05:51:09;101463.88;;;5.48;59.87
46756;BME280;32506;52.826;-1.192;2023-02-01T05:53:35;101464.03;;;5.47;59.78
46756;BME280;32506;52.826;-1.192;2023-02-01T05:56:01;101465.84;;;5.46;59.98
46756;BME280;32506;52.826;-1.192;2023-02-01T05:58:27;101463.19;;;5.46;59.84
46756;BME280;32506;52.826;-1.192;2023-02-01T06:00:52;101459.88;;;5.44;60.09
46756;BME280;32506;52.826;-1.192;2023-02-01T06:03:18;101460.84;;;5.43;59.90
46756;BME280;32506;52.826;-1.192;2023-02-01T06:05:45;101463.50;;;5.43;59.74
46756;BME280;32506;52.826;-1.192;2023-02-01T06:08:11;101471.63;;;5.42;59.76
46756;BME280;32506;52.826;-1.192;2023-02-01T06:10:36;101454.72;;;5.43;59.85
46756;BME280;32506;52.826;-1.192;2023-02-01T06:13:01;101463.66;;;5.42;59.94
46756;BME280;32506;52.826;-1.192;2023-02-01T06:15:29;101458.38;;;5.42;59.91
46756;BME280;32506;52.826;-1.192;2023-02-01T06:17:55;101462.97;;;5.40;59.67
46756;BME280;32506;52.826;-1.192;2023-02-01T06:20:20;101463.84;;;5.40;60.06
46756;BME280;32506;52.826;-1.192;2023-02-01T06:22:46;101454.22;;;5.39;59.78
46756;BME280;32506;52.826;-1.192;2023-02-01T06:25:11;101461.34;;;5.38;59.90
46756;BME280;32506;52.826;-1.192;2023-02-01T06:27:37;101459.66;;;5.37;59.58
46756;BME280;32506;52.826;-1.192;2023-02-01T06:30:04;101468.44;;;5.38;60.01
46756;BME280;32506;52.826;-1.192;2023-02-01T06:32:31;101457.03;;;5.37;59.91
46756;BME280;32506;52.826;-1.192;2023-02-01T06:34:57;101454.53;;;5.36;59.99
46756;BME280;32506;52.826;-1.192;2023-02-01T06:37:23;101452.69;;;5.36;60.46
46756;BME280;32506;52.826;-1.192;2023-02-01T06:39:50;101460.66;;;5.36;60.29
46756;BME280;32506;52.826;-1.192;2023-02-01T06:42:16;101447.41;;;5.36;60.20
46756;BME280;32506;52.826;-1.192;2023-02-01T06:44:42;101455.34;;;5.36;59.99
46756;BME280;32506;52.826;-1.192;2023-02-01T06:47:07;101448.38;;;5.35;60.30
46756;BME280;32506;52.826;-1.192;2023-02-01T06:49:33;101442.09;;;5.36;60.25
46756;BME280;32506;52.826;-1.192;2023-02-01T06:51:58;101428.03;;;5.36;60.45
46756;BME280;32506;52.826;-1.192;2023-02-01T06:54:27;101435.13;;;5.35;60.37
46756;BME280;32506;52.826;-1.192;2023-02-01T06:56:53;101422.84;;;5.34;59.93
46756;BME280;32506;52.826;-1.192;2023-02-01T06:59:18;101420.06;;;5.36;60.17
46756;BME280;32506;52.826;-1.192;2023-02-01T07:01:44;101423.69;;;5.35;60.76
46756;BME280;32506;52.826;-1.192;2023-02-01T07:04:11;101420.19;;;5.34;60.27
46756;BME280;32506;52.826;-1.192;2023-02-01T07:06:38;101414.91;;;5.34;60.55
46756;BME280;32506;52.826;-1.192;2023-02-01T07:09:03;101413.09;;;5.35;60.37
46756;BME280;32506;52.826;-1.192;2023-02-01T07:11:29;101396.34;;;5.34;60.60
46756;BME280;32506;52.826;-1.192;2023-02-01T07:13:55;101407.78;;;5.35;60.47
46756;BME280;32506;52.826;-1.192;2023-02-01T07:16:21;101412.25;;;5.34;61.02
46756;BME280;32506;52.826;-1.192;2023-02-01T07:18:47;101417.53;;;5.34;60.88
46756;BME280;32506;52.826;-1.192;2023-02-01T07:21:13;101410.44;;;5.35;60.78
46756;BME280;32506;52.826;-1.192;2023-02-01T07:23:38;101407.78;;;5.35;60.43
46756;BME280;32506;52.826;-1.192;2023-02-01T07:26:06;101419.22;;;5.35;60.54
46756;BME280;32506;52.826;-1.192;2023-02-01T07:28:34;101418.22;;;5.36;60.87
46756;BME280;32506;52.826;-1.192;2023-02-01T07:31:12;101416.41;;;5.37;60.56
46756;BME280;32506;52.826;-1.192;2023-02-01T07:33:43;101411.09;;;5.37;60.91
46756;BME280;32506;52.826;-1.192;2023-02-01T07:36:12;101417.25;;;5.37;60.99
46756;BME280;32506;52.826;-1.192;2023-02-01T07:38:38;101418.06;;;5.38;60.67
46756;BME280;32506;52.826;-1.192;2023-02-01T07:41:05;101412.59;;;5.40;61.06
46756;BME280;32506;52.826;-1.192;2023-02-01T07:43:31;101421.56;;;5.38;60.90
46756;BME280;32506;52.826;-1.192;2023-02-01T07:45:58;101418.75;;;5.40;61.29
46756;BME280;32506;52.826;-1.192;2023-02-01T07:48:24;101421.41;;;5.40;60.99
46756;BME280;32506;52.826;-1.192;2023-02-01T07:50:58;101415.94;;;5.42;61.14
46756;BME280;32506;52.826;-1.192;2023-02-01T07:53:24;101423.06;;;5.41;61.00
46756;BME280;32506;52.826;-1.192;2023-02-01T07:55:49;101427.53;;;5.41;60.87
46756;BME280;32506;52.826;-1.192;2023-02-01T07:58:14;101420.41;;;5.41;61.07
46756;BME280;32506;52.826;-1.192;2023-02-01T08:00:40;101416.75;;;5.42;61.25
46756;BME280;32506;52.826;-1.192;2023-02-01T08:03:24;101434.34;;;5.43;60.96
46756;BME280;32506;52.826;-1.192;2023-02-01T08:05:56;101427.38;;;5.42;61.52
46756;BME280;32506;52.826;-1.192;2023-02-01T08:08:22;101432.50;;;5.44;61.02
46756;BME280;32506;52.826;-1.192;2023-02-01T08:10:48;101441.31;;;5.44;61.14
46756;BME280;32506;52.826;-1.192;2023-02-01T08:13:13;101438.50;;;5.46;61.09
46756;BME280;32506;52.826;-1.192;2023-02-01T08:15:39;101449.09;;;5.46;60.83
46756;BME280;32506;52.826;-1.192;2023-02-01T08:18:04;101444.63;;;5.46;61.27
46756;BME280;32506;52.826;-1.192;2023-02-01T08:20:30;101447.13;;;5.48;61.18
46756;BME280;32506;52.826;-1.192;2023-02-01T08:22:55;101442.50;;;5.50;61.27
46756;BME280;32506;52.826;-1.192;2023-02-01T08:25:22;101448.63;;;5.50;60.93
46756;BME280;32506;52.826;-1.192;2023-02-01T08:27:48;101447.63;;;5.51;61.42
46756;BME280;32506;52.826;-1.192;2023-02-01T08:30:15;101451.78;;;5.54;61.48
46756;BME280;32506;52.826;-1.192;2023-02-01T08:32:40;101445.50;;;5.55;61.01
46756;BME280;32506;52.826;-1.192;2023-02-01T08:35:06;101450.66;;;5.57;60.91
46756;BME280;32506;52.826;-1.192;2023-02-01T08:37:32;101444.38;;;5.58;61.24
46756;BME280;32506;52.826;-1.192;2023-02-01T08:39:57;101453.81;;;5.60;60.67
46756;BME280;32506;52.826;-1.192;2023-02-01T08:42:23;101456.31;;;5.62;60.60
46756;BME280;32506;52.826;-1.192;2023-02-01T08:45:08;101454.19;;;5.65;60.83
46756;BME280;32506;52.826;-1.192;2023-02-01T08:47:34;101464.63;;;5.67;60.70
46756;BME280;32506;52.826;-1.192;2023-02-01T08:50:00;101465.28;;;5.69;60.61
46756;BME280;32506;52.826;-1.192;2023-02-01T08:52:25;101463.16;;;5.72;60.87
46756;BME280;32506;52.826;-1.192;2023-02-01T08:54:51;101466.47;;;5.75;60.97
46756;BME280;32506;52.826;-1.192;2023-02-01T08:57:16;101471.31;;;5.79;60.29
46756;BME280;32506;52.826;-1.192;2023-02-01T08:59:42;101473.63;;;5.82;61.13
46756;BME280;32506;52.826;-1.192;2023-02-01T09:02:14;101474.16;;;5.86;60.85
46756;BME280;32506;52.826;-1.192;2023-02-01T09:04:40;101484.28;;;5.91;61.54
46756;BME280;32506;52.826;-1.192;2023-02-01T09:07:06;101489.28;;;5.94;61.33
46756;BME280;32506;52.826;-1.192;2023-02-01T09:09:32;101499.28;;;6.00;61.53
46756;BME280;32506;52.826;-1.192;2023-02-01T09:11:57;101494.50;;;6.03;61.83
46756;BME280;32506;52.826;-1.192;2023-02-01T09:14:23;101502.81;;;6.09;61.98
46756;BME280;32506;52.826;-1.192;2023-02-01T09:16:48;101504.16;;;6.13;62.04
46756;BME280;32506;52.826;-1.192;2023-02-01T09:19:14;101501.84;;;6.18;61.84
46756;BME280;32506;52.826;-1.192;2023-02-01T09:21:39;101505.50;;;6.25;61.68
46756;BME280;32506;52.826;-1.192;2023-02-01T09:24:05;101504.03;;;6.31;62.06
46756;BME280;32506;52.826;-1.192;2023-02-01T09:26:32;101503.56;;;6.35;62.27
46756;BME280;32506;52.826;-1.192;2023-02-01T09:28:57;101512.69;;;6.41;62.41
46756;BME280;32506;52.826;-1.192;2023-02-01T09:31:23;101505.72;;;6.48;62.70
46756;BME280;32506;52.826;-1.192;2023-02-01T09:33:48;101501.91;;;6.51;62.04
46756;BME280;32506;52.826;-1.192;2023-02-01T09:36:14;101494.97;;;6.58;62.58
46756;BME280;32506;52.826;-1.192;2023-02-01T09:38:39;101501.28;;;6.65;63.24
46756;BME280;32506;52.826;-1.192;2023-02-01T09:47:15;101497.78;;;6.98;63.96
46756;BME280;32506;52.826;-1.192;2023-02-01T09:49:49;101505.28;;;7.11;64.01
46756;BME280;32506;52.826;-1.192;2023-02-01T09:52:21;101519.72;;;7.25;64.87
46756;BME280;32506;52.826;-1.192;2023-02-01T09:55:00;101504.06;;;7.38;63.83
46756;BME280;32506;52.826;-1.192;2023-02-01T09:57:53;101511.53;;;7.51;64.14
46756;BME280;32506;52.826;-1.192;2023-02-01T10:00:30;101512.84;;;7.63;64.36
46756;BME280;32506;52.826;-1.192;2023-02-01T10:02:59;101508.16;;;7.73;64.60
46756;BME280;32506;52.826;-1.192;2023-02-01T10:11:01;101504.59;;;7.98;63.51
46756;BME280;32506;52.826;-1.192;2023-02-01T10:16:26;101506.50;;;8.12;63.77
46756;BME280;32506;52.826;-1.192;2023-02-01T10:21:50;101508.44;;;8.27;63.53
46756;BME280;32506;52.826;-1.192;2023-02-01T10:24:47;101502.22;;;8.34;63.41
46756;BME280;32506;52.826;-1.192;2023-02-01T10:27:28;101508.69;;;8.40;63.28
46756;BME280;32506;52.826;-1.192;2023-02-01T10:30:05;101515.31;;;8.44;63.24
46756;BME280;32506;52.826;-1.192;2023-02-01T10:32:39;101520.00;;;8.50;62.77
46756;BME280;32506;52.826;-1.192;2023-02-01T10:35:28;101526.25;;;8.57;62.63
46756;BME280;32506;52.826;-1.192;2023-02-01T10:37:55;101519.56;;;8.62;62.72
46756;BME280;32506;52.826;-1.192;2023-02-01T10:40:23;101529.53;;;8.68;62.40
46756;BME280;32506;52.826;-1.192;2023-02-01T10:42:56;101527.31;;;8.71;62.63
46756;BME280;32506;52.826;-1.192;2023-02-01T10:45:26;101531.47;;;8.74;62.41
46756;BME280;32506;52.826;-1.192;2023-02-01T10:47:53;101538.94;;;8.79;62.31
46756;BME280;32506;52.826;-1.192;2023-02-01T10:52:55;101529.59;;;8.83;62.14
46756;BME280;32506;52.826;-1.192;2023-02-01T10:55:37;101538.88;;;8.87;62.23
46756;BME280;32506;52.826;-1.192;2023-02-01T10:58:07;101546.00;;;8.95;63.09
46756;BME280;32506;52.826;-1.192;2023-02-01T11:00:52;101526.91;;;9.06;62.62
46756;BME280;32506;52.826;-1.192;2023-02-01T11:06:01;101536.25;;;9.25;62.25
46756;BME280;32506;52.826;-1.192;2023-02-01T11:08:28;101526.22;;;9.27;60.13
46756;BME280;32506;52.826;-1.192;2023-02-01T11:11:02;101530.38;;;9.30;59.93
46756;BME280;32506;52.826;-1.192;2023-02-01T11:13:31;101527.91;;;9.28;59.72
46756;BME280;32506;52.826;-1.192;2023-02-01T11:15:59;101526.41;;;9.26;59.50
46756;BME280;32506;52.826;-1.192;2023-02-01T11:18:29;101529.09;;;9.26;59.95
46756;BME280;32506;52.826;-1.192;2023-02-01T11:20:55;101532.38;;;9.28;60.07
46756;BME280;32506;52.826;-1.192;2023-02-01T11:23:23;101525.53;;;9.33;60.24
46756;BME280;32506;52.826;-1.192;2023-02-01T11:28:23;101533.44;;;9.42;60.55
46756;BME280;32506;52.826;-1.192;2023-02-01T11:30:51;101539.22;;;9.45;60.55
46756;BME280;32506;52.826;-1.192;2023-02-01T11:33:22;101529.22;;;9.47;60.81
46756;BME280;32506;52.826;-1.192;2023-02-01T11:35:51;101538.31;;;9.53;60.75
46756;BME280;32506;52.826;-1.192;2023-02-01T11:38:35;101531.78;;;9.55;60.81
46756;BME280;32506;52.826;-1.192;2023-02-01T11:41:25;101537.41;;;9.61;60.68
46756;BME280;32506;52.826;-1.192;2023-02-01T11:43:59;101532.88;;;9.61;61.20
46756;BME280;32506;52.826;-1.192;2023-02-01T11:46:30;101526.34;;;9.64;60.83
46756;BME280;32506;52.826;-1.192;2023-02-01T11:48:57;101521.50;;;9.67;60.87
46756;BME280;32506;52.826;-1.192;2023-02-01T12:08:22;101523.16;;;9.83;60.93
46756;BME280;32506;52.826;-1.192;2023-02-01T12:17:30;101514.84;;;9.93;61.22
46756;BME280;32506;52.826;-1.192;2023-02-01T12:22:19;101517.41;;;10.01;61.04
46756;BME280;32506;52.826;-1.192;2023-02-01T12:27:52;101511.97;;;10.10;61.18
46756;BME280;32506;52.826;-1.192;2023-02-01T12:33:18;101506.09;;;10.14;61.25
46756;BME280;32506;52.826;-1.192;2023-02-01T12:38:57;101502.03;;;10.18;61.21
46756;BME280;32506;52.826;-1.192;2023-02-01T12:44:10;101501.81;;;10.20;61.19
46756;BME280;32506;52.826;-1.192;2023-02-01T12:46:44;101502.47;;;10.22;61.07
46756;BME280;32506;52.826;-1.192;2023-02-01T12:52:17;101493.22;;;10.24;61.04
46756;BME280;32506;52.826;-1.192;2023-02-01T12:55:10;101494.53;;;10.29;60.93
46756;BME280;32506;52.826;-1.192;2023-02-01T12:57:45;101498.66;;;10.31;61.03
46756;BME280;32506;52.826;-1.192;2023-02-01T13:00:35;101488.63;;;10.33;60.77
46756;BME280;32506;52.826;-1.192;2023-02-01T13:06:23;101496.28;;;10.36;61.13
46756;BME280;32506;52.826;-1.192;2023-02-01T13:11:38;101493.69;;;10.43;61.02
46756;BME280;32506;52.826;-1.192;2023-02-01T13:17:01;101478.91;;;10.47;60.60
46756;BME280;32506;52.826;-1.192;2023-02-01T13:19:42;101484.72;;;10.51;60.98
46756;BME280;32506;52.826;-1.192;2023-02-01T13:22:16;101474.84;;;10.51;60.96
46756;BME280;32506;52.826;-1.192;2023-02-01T13:24:49;101483.50;;;10.53;60.81
46756;BME280;32506;52.826;-1.192;2023-02-01T13:27:16;101487.84;;;10.54;60.95
46756;BME280;32506;52.826;-1.192;2023-02-01T13:29:51;101475.09;;;10.56;60.72
46756;BME280;32506;52.826;-1.192;2023-02-01T13:43:30;101480.44;;;10.56;60.71
46756;BME280;32506;52.826;-1.192;2023-02-01T13:46:05;101479.44;;;10.57;60.64
46756;BME280;32506;52.826;-1.192;2023-02-01T13:48:39;101482.75;;;10.60;60.56
46756;BME280;32506;52.826;-1.192;2023-02-01T13:51:07;101480.91;;;10.60;60.72
46756;BME280;32506;52.826;-1.192;2023-02-01T13:53:37;101495.94;;;10.61;60.69
46756;BME280;32506;52.826;-1.192;2023-02-01T13:58:37;101508.25;;;10.62;60.55
46756;BME280;32506;52.826;-1.192;2023-02-01T14:06:35;101513.81;;;10.61;59.92
46756;BME280;32506;52.826;-1.192;2023-02-01T14:11:47;101529.03;;;10.60;59.96
46756;BME280;32506;52.826;-1.192;2023-02-01T14:19:28;101529.41;;;10.57;59.93
46756;BME280;32506;52.826;-1.192;2023-02-01T14:21:59;101529.59;;;10.55;59.96
46756;BME280;32506;52.826;-1.192;2023-02-01T14:24:34;101521.75;;;10.54;60.10
46756;BME280;32506;52.826;-1.192;2023-02-01T14:29:40;101535.50;;;10.51;60.28
46756;BME280;32506;52.826;-1.192;2023-02-01T14:32:21;101525.81;;;10.50;60.22
46756;BME280;32506;52.826;-1.192;2023-02-01T14:42:24;101527.22;;;10.46;59.83
46756;BME280;32506;52.826;-1.192;2023-02-01T14:44:52;101528.22;;;10.45;59.88
46756;BME280;32506;52.826;-1.192;2023-02-01T14:50:13;101529.25;;;10.44;59.86
46756;BME280;32506;52.826;-1.192;2023-02-01T14:52:46;101528.63;;;10.41;60.09
46756;BME280;32506;52.826;-1.192;2023-02-01T14:55:24;101533.16;;;10.41;60.08
46756;BME280;32506;52.826;-1.192;2023-02-01T14:57:54;101536.81;;;10.40;59.99
46756;BME280;32506;52.826;-1.192;2023-02-01T15:00:24;101536.81;;;10.40;60.15
46756;BME280;32506;52.826;-1.192;2023-02-01T15:02:52;101544.03;;;10.39;59.96
46756;BME280;32506;52.826;-1.192;2023-02-01T15:05:35;101549.38;;;10.39;60.17
46756;BME280;32506;52.826;-1.192;2023-02-01T15:08:25;101566.22;;;10.40;59.97
46756;BME280;32506;52.826;-1.192;2023-02-01T15:10:54;101561.06;;;10.38;60.29
46756;BME280;32506;52.826;-1.192;2023-02-01T15:13:26;101566.41;;;10.38;60.17
46756;BME280;32506;52.826;-1.192;2023-02-01T15:18:28;101566.59;;;10.37;59.99
46756;BME280;32506;52.826;-1.192;2023-02-01T15:20:58;101581.78;;;10.36;59.86
46756;BME280;32506;52.826;-1.192;2023-02-01T15:23:24;101587.13;;;10.36;60.18